createdAt,value
2023-06-30T00:00:29.768Z,22.12
2023-06-30T00:03:32.819Z,22.13
2023-06-30T00:06:35.887Z,22.11
2023-06-30T00:09:40.083Z,22.10
2023-06-30T00:12:42.968Z,22.04
2023-06-30T00:15:45.987Z,22.07
2023-06-30T00:18:49.352Z,22.02
2023-06-30T00:21:53.594Z,21.93
2023-06-30T00:24:59.661Z,21.90
2023-06-30T00:28:02.531Z,21.85
2023-06-30T00:31:05.423Z,21.87
2023-06-30T00:34:08.279Z,21.75
2023-06-30T00:37:11.040Z,21.73
2023-06-30T00:40:16.367Z,21.65
2023-06-30T00:43:19.260Z,21.59
2023-06-30T00:46:22.126Z,21.54
2023-06-30T00:49:25.267Z,21.49
2023-06-30T00:52:28.184Z,21.39
2023-06-30T00:55:33.180Z,21.40
2023-06-30T00:58:36.044Z,21.39
2023-06-30T01:01:45.128Z,21.21
2023-06-30T01:04:55.064Z,21.16
2023-06-30T01:08:04.011Z,21.12
2023-06-30T01:11:10.003Z,21.08
2023-06-30T01:14:13.546Z,21.08
2023-06-30T01:17:19.577Z,21.11
2023-06-30T01:20:23.574Z,21.10
2023-06-30T01:23:35.646Z,21.06
2023-06-30T01:26:42.180Z,21.09
2023-06-30T01:29:45.320Z,21.00
2023-06-30T01:32:48.977Z,21.00
2023-06-30T01:35:51.944Z,20.99
2023-06-30T01:38:54.697Z,20.97
2023-06-30T01:41:59.003Z,20.96
2023-06-30T01:45:03.256Z,20.90
2023-06-30T01:48:06.941Z,20.83
2023-06-30T01:51:11.360Z,20.85
2023-06-30T01:54:14.233Z,20.84
2023-06-30T01:57:18.449Z,20.74
2023-06-30T02:00:21.325Z,20.71
2023-06-30T02:03:24.306Z,20.71
2023-06-30T02:06:27.263Z,20.71
2023-06-30T02:09:42.669Z,20.65
2023-06-30T02:12:51.275Z,20.69
2023-06-30T02:15:54.192Z,20.68
2023-06-30T02:18:56.962Z,20.70
2023-06-30T02:21:59.843Z,20.71
2023-06-30T02:25:02.583Z,20.74
2023-06-30T02:28:07.182Z,20.77
2023-06-30T02:31:10.071Z,20.74
2023-06-30T02:34:13.024Z,20.73
2023-06-30T02:37:16.094Z,20.66
2023-06-30T02:40:19.002Z,20.67
2023-06-30T02:43:23.353Z,20.60
2023-06-30T02:46:26.156Z,20.61
2023-06-30T02:49:29.512Z,20.63
2023-06-30T02:52:34.422Z,20.59
2023-06-30T02:55:39.338Z,20.59
2023-06-30T02:58:43.743Z,20.57
2023-06-30T03:01:46.577Z,20.56
2023-06-30T03:04:49.330Z,20.53
2023-06-30T03:07:52.052Z,20.45
2023-06-30T03:10:54.949Z,20.48
2023-06-30T03:13:59.087Z,20.51
2023-06-30T03:17:02.865Z,20.47
2023-06-30T03:20:13.366Z,20.51
2023-06-30T03:23:16.142Z,20.55
2023-06-30T03:26:18.859Z,20.57
2023-06-30T03:29:24.510Z,20.63
2023-06-30T03:32:27.410Z,20.64
2023-06-30T03:35:30.359Z,20.63
2023-06-30T03:38:33.107Z,20.67
2023-06-30T03:41:36.043Z,20.67
2023-06-30T03:44:40.287Z,20.66
2023-06-30T03:47:43.070Z,20.67
2023-06-30T03:50:45.988Z,20.69
2023-06-30T03:53:48.662Z,20.70
2023-06-30T03:56:51.421Z,20.75
2023-06-30T03:59:55.554Z,20.73
2023-06-30T04:02:58.336Z,20.79
2023-06-30T04:06:01.332Z,20.86
2023-06-30T04:09:17.683Z,21.01
2023-06-30T04:12:35.583Z,21.14
2023-06-30T04:15:39.921Z,21.33
2023-06-30T04:18:42.672Z,21.45
2023-06-30T04:21:45.585Z,21.39
2023-06-30T04:24:48.351Z,21.32
2023-06-30T04:27:51.173Z,21.27
2023-06-30T04:30:55.469Z,21.28
2023-06-30T04:33:58.367Z,21.28
2023-06-30T04:37:01.210Z,21.32
2023-06-30T04:40:05.862Z,21.37
2023-06-30T04:43:13.790Z,21.37
2023-06-30T04:46:18.197Z,21.53
2023-06-30T04:49:21.101Z,21.65
2023-06-30T04:52:23.850Z,21.93
2023-06-30T04:55:26.574Z,22.09
2023-06-30T04:58:29.454Z,22.20
2023-06-30T05:01:34.167Z,22.16
2023-06-30T05:04:37.023Z,21.91
2023-06-30T05:07:39.966Z,21.87
2023-06-30T05:10:42.754Z,22.01
2023-06-30T05:13:45.609Z,22.40
2023-06-30T05:16:50.248Z,22.50
2023-06-30T05:19:53.032Z,22.58
2023-06-30T05:22:55.899Z,22.92
2023-06-30T05:25:59.814Z,23.40
2023-06-30T05:29:05.257Z,23.72
2023-06-30T05:32:10.469Z,23.96
2023-06-30T05:35:13.202Z,24.17
2023-06-30T05:38:15.983Z,24.44
2023-06-30T05:41:18.768Z,24.48
2023-06-30T05:44:21.567Z,24.39
2023-06-30T05:47:25.770Z,24.21
2023-06-30T05:50:30.046Z,23.77
2023-06-30T05:53:32.971Z,23.64
2023-06-30T05:56:35.890Z,23.50
2023-06-30T05:59:38.654Z,23.42
2023-06-30T06:02:42.809Z,23.70
2023-06-30T06:05:46.010Z,23.77
2023-06-30T06:08:49.430Z,23.60
2023-06-30T06:11:52.492Z,23.60
2023-06-30T06:14:55.244Z,23.72
2023-06-30T06:17:59.385Z,23.34
2023-06-30T06:21:04.381Z,23.15
2023-06-30T06:24:08.423Z,23.12
2023-06-30T06:27:11.419Z,23.10
2023-06-30T06:30:15.006Z,23.06
2023-06-30T06:33:19.191Z,22.99
2023-06-30T06:36:22.478Z,22.99
2023-06-30T06:39:25.452Z,22.95
2023-06-30T06:42:28.346Z,23.04
2023-06-30T06:45:31.046Z,23.12
2023-06-30T06:48:35.388Z,22.85
2023-06-30T06:51:38.186Z,22.95
2023-06-30T06:54:41.071Z,22.79
2023-06-30T06:57:43.876Z,22.82
2023-06-30T07:00:48.202Z,22.85
2023-06-30T07:03:52.432Z,22.81
2023-06-30T07:06:55.672Z,22.67
2023-06-30T07:09:58.443Z,22.70
2023-06-30T07:13:01.214Z,22.62
2023-06-30T07:16:04.127Z,22.60
2023-06-30T07:19:08.310Z,22.57
2023-06-30T07:22:11.083Z,22.52
2023-06-30T07:25:14.092Z,22.54
2023-06-30T07:28:17.036Z,22.57
2023-06-30T07:31:19.857Z,22.55
2023-06-30T07:34:24.879Z,22.58
2023-06-30T07:37:27.601Z,22.63
2023-06-30T07:40:41.635Z,22.85
2023-06-30T07:43:49.176Z,22.95
2023-06-30T07:46:51.982Z,22.94
2023-06-30T07:49:56.139Z,22.94
2023-06-30T07:52:58.900Z,22.98
2023-06-30T07:56:01.761Z,22.97
2023-06-30T07:59:04.567Z,22.94
2023-06-30T08:02:07.900Z,22.91
2023-06-30T08:05:12.787Z,22.97
2023-06-30T08:08:15.731Z,23.10
2023-06-30T08:11:18.651Z,23.29
2023-06-30T08:14:21.401Z,23.67
2023-06-30T08:17:30.888Z,23.94
2023-06-30T08:20:43.804Z,24.14
2023-06-30T08:23:46.537Z,24.38
2023-06-30T08:26:49.442Z,24.41
2023-06-30T08:29:52.181Z,24.45
2023-06-30T08:32:57.663Z,24.54
2023-06-30T08:36:02.188Z,24.25
2023-06-30T08:39:05.164Z,24.18
2023-06-30T08:42:10.234Z,24.29
2023-06-30T08:45:15.095Z,24.52
2023-06-30T08:48:21.083Z,24.74
2023-06-30T08:51:25.999Z,24.50
2023-06-30T08:54:29.885Z,24.28
2023-06-30T08:57:33.808Z,24.05
2023-06-30T09:00:36.627Z,23.72
2023-06-30T09:03:40.519Z,23.69
2023-06-30T09:06:49.312Z,23.85
2023-06-30T09:09:55.957Z,23.76
2023-06-30T09:12:59.624Z,23.76
2023-06-30T09:16:07.739Z,23.82
2023-06-30T09:19:11.501Z,23.70
2023-06-30T09:22:53.832Z,23.50
2023-06-30T09:25:41.875Z,23.22
2023-06-30T09:28:45.212Z,23.06
2023-06-30T09:31:51.997Z,23.03
2023-06-30T09:34:55.464Z,23.03
2023-06-30T09:37:59.770Z,23.28
2023-06-30T09:41:06.462Z,23.50
2023-06-30T09:44:11.792Z,23.72
2023-06-30T09:47:19.396Z,23.95
2023-06-30T09:50:26.080Z,23.97
2023-06-30T09:53:37.928Z,24.15
2023-06-30T09:56:42.596Z,24.26
2023-06-30T09:59:47.547Z,24.08
2023-06-30T10:03:03.845Z,23.85
2023-06-30T10:06:06.868Z,23.44
2023-06-30T10:09:11.286Z,23.10
2023-06-30T10:12:16.768Z,22.77
2023-06-30T10:15:19.946Z,22.55
2023-06-30T10:18:22.859Z,22.20
2023-06-30T10:21:25.618Z,22.08
2023-06-30T10:24:31.611Z,22.06
2023-06-30T10:27:35.997Z,22.04
2023-06-30T10:30:39.548Z,22.00
2023-06-30T10:33:42.971Z,22.10
2023-06-30T10:36:46.528Z,22.34
2023-06-30T10:39:50.706Z,22.26
2023-06-30T10:42:55.593Z,22.21
2023-06-30T10:46:11.346Z,22.28
2023-06-30T10:49:20.015Z,22.22
2023-06-30T10:52:30.285Z,22.20
2023-06-30T10:55:34.709Z,22.18
2023-06-30T10:58:43.219Z,22.20
2023-06-30T11:02:13.789Z,22.16
2023-06-30T11:05:24.594Z,22.29
2023-06-30T11:08:27.732Z,22.37
2023-06-30T11:11:32.045Z,22.56
2023-06-30T11:14:34.818Z,22.56
2023-06-30T11:18:04.753Z,22.84
2023-06-30T11:21:09.186Z,23.04
2023-06-30T11:24:16.524Z,23.28
2023-06-30T11:27:20.868Z,23.17
2023-06-30T11:30:24.393Z,22.92
2023-06-30T11:33:27.144Z,22.58
2023-06-30T11:36:32.424Z,22.08
2023-06-30T11:39:36.756Z,22.00
2023-06-30T11:42:44.174Z,21.62
2023-06-30T11:45:57.216Z,21.58
2023-06-30T11:49:00.298Z,21.48
2023-06-30T11:52:03.330Z,21.55
2023-06-30T11:55:10.019Z,21.43
2023-06-30T11:58:19.973Z,21.54
2023-06-30T12:01:22.886Z,21.63
2023-06-30T12:04:36.918Z,21.57
2023-06-30T12:07:40.533Z,21.70
2023-06-30T12:10:44.246Z,21.76
2023-06-30T12:13:48.829Z,21.95
2023-06-30T12:16:52.728Z,21.88
2023-06-30T12:19:55.517Z,21.75
2023-06-30T12:22:58.583Z,21.73
2023-06-30T12:26:01.400Z,21.71
2023-06-30T12:29:06.083Z,21.52
2023-06-30T12:32:14.943Z,21.46
2023-06-30T12:35:17.879Z,21.52
2023-06-30T12:38:20.714Z,21.30
2023-06-30T12:41:24.176Z,21.39
2023-06-30T12:44:28.319Z,21.41
2023-06-30T12:47:31.288Z,21.36
2023-06-30T12:50:34.453Z,21.47
2023-06-30T12:53:37.784Z,21.51
2023-06-30T12:56:40.535Z,21.42
2023-06-30T12:59:44.949Z,21.46
2023-06-30T13:02:47.812Z,21.52
2023-06-30T13:05:52.249Z,21.69
2023-06-30T13:08:55.002Z,21.73
2023-06-30T13:11:58.461Z,21.72
2023-06-30T13:15:02.867Z,21.69
2023-06-30T13:18:05.615Z,21.71
2023-06-30T13:21:08.878Z,21.84
2023-06-30T13:24:12.696Z,21.68
2023-06-30T13:27:15.645Z,21.67
2023-06-30T13:30:19.907Z,21.62
2023-06-30T13:33:23.070Z,21.50
2023-06-30T13:36:27.452Z,21.66
2023-06-30T13:39:31.848Z,21.66
2023-06-30T13:42:36.026Z,21.83
2023-06-30T13:45:40.303Z,22.02
2023-06-30T13:48:43.322Z,22.04
2023-06-30T13:51:46.180Z,22.26
2023-06-30T13:54:48.925Z,22.36
2023-06-30T13:57:51.703Z,22.52
2023-06-30T14:00:56.013Z,22.59
2023-06-30T14:03:58.804Z,22.69
2023-06-30T14:07:03.652Z,22.86
2023-06-30T14:10:07.221Z,22.91
2023-06-30T14:13:10.021Z,22.98
2023-06-30T14:16:14.417Z,23.08
2023-06-30T14:19:17.309Z,23.08
2023-06-30T14:22:20.179Z,23.28
2023-06-30T14:25:25.412Z,23.31
2023-06-30T14:28:28.213Z,23.60
2023-06-30T14:31:35.667Z,23.73
2023-06-30T14:34:38.774Z,24.06
2023-06-30T14:37:41.650Z,23.96
2023-06-30T14:44:05.669Z,24.63
2023-06-30T14:47:10.104Z,24.23
2023-06-30T14:50:12.889Z,23.40
2023-06-30T14:53:16.508Z,22.64
2023-06-30T14:56:19.397Z,22.25
2023-06-30T14:59:22.171Z,21.61
2023-06-30T15:02:26.680Z,21.34
2023-06-30T15:05:30.601Z,21.20
2023-06-30T15:08:33.505Z,21.29
2023-06-30T15:11:36.357Z,21.40
2023-06-30T15:14:39.138Z,21.46
2023-06-30T15:17:43.527Z,21.34
2023-06-30T15:20:46.424Z,21.08
2023-06-30T15:23:49.182Z,20.93
2023-06-30T15:26:52.004Z,20.78
2023-06-30T15:29:55.059Z,20.52
2023-06-30T15:32:59.421Z,20.79
2023-06-30T15:36:02.286Z,20.79
2023-06-30T15:39:05.485Z,21.09
2023-06-30T15:42:08.649Z,21.15
2023-06-30T15:45:11.986Z,21.23
2023-06-30T15:48:16.211Z,21.08
2023-06-30T15:51:21.114Z,20.86
2023-06-30T15:54:24.061Z,20.76
2023-06-30T15:57:26.880Z,20.58
2023-06-30T16:00:29.629Z,20.49
2023-06-30T16:03:34.050Z,20.37
2023-06-30T16:06:36.801Z,20.63
2023-06-30T16:09:39.681Z,20.59
2023-06-30T16:12:42.484Z,20.54
2023-06-30T16:15:45.716Z,20.57
2023-06-30T16:18:50.411Z,20.45
2023-06-30T16:21:54.521Z,20.49
2023-06-30T16:25:00.482Z,20.44
2023-06-30T16:28:03.425Z,20.60
2023-06-30T16:31:06.180Z,20.75
2023-06-30T16:34:10.468Z,20.96
2023-06-30T16:37:13.261Z,21.13
2023-06-30T16:40:16.112Z,21.01
2023-06-30T16:43:19.026Z,20.94
2023-06-30T16:46:21.780Z,21.07
2023-06-30T16:49:26.970Z,21.23
2023-06-30T16:52:29.744Z,21.31
2023-06-30T16:55:32.637Z,21.28
2023-06-30T16:58:35.548Z,21.40
2023-06-30T17:01:38.292Z,21.32
2023-06-30T17:04:42.767Z,21.26
2023-06-30T17:07:45.707Z,21.42
2023-06-30T17:10:48.636Z,21.47
2023-06-30T17:13:51.602Z,21.60
2023-06-30T17:16:54.393Z,21.50
2023-06-30T17:19:58.647Z,21.44
2023-06-30T17:23:01.496Z,21.34
2023-06-30T17:26:04.384Z,21.29
2023-06-30T17:29:07.170Z,21.20
2023-06-30T17:32:10.220Z,21.06
2023-06-30T17:35:14.496Z,21.01
2023-06-30T17:38:17.243Z,20.94
2023-06-30T17:41:20.373Z,20.84
2023-06-30T17:44:24.294Z,20.85
2023-06-30T17:47:27.055Z,20.77
2023-06-30T17:50:31.254Z,20.98
2023-06-30T17:53:34.207Z,20.89
2023-06-30T17:56:37.038Z,20.91
2023-06-30T17:59:39.901Z,20.91
2023-06-30T18:02:42.709Z,20.91
2023-06-30T18:05:47.150Z,20.87
2023-06-30T18:08:50.127Z,20.96
2023-06-30T18:11:53.061Z,20.74
2023-06-30T18:14:55.847Z,20.54
2023-06-30T18:17:59.150Z,20.54
2023-06-30T18:21:03.306Z,20.55
2023-06-30T18:24:07.837Z,20.54
2023-06-30T18:27:10.565Z,20.56
2023-06-30T18:30:13.730Z,20.48
2023-06-30T18:33:16.679Z,20.46
2023-06-30T18:36:20.925Z,20.47
2023-06-30T18:39:23.669Z,20.41
2023-06-30T18:42:26.402Z,20.36
2023-06-30T18:45:29.268Z,20.31
2023-06-30T18:48:32.301Z,20.33
2023-06-30T18:51:36.470Z,20.31
2023-06-30T18:54:39.286Z,20.28
2023-06-30T18:57:42.241Z,20.23
2023-06-30T19:00:45.244Z,20.20
2023-06-30T19:03:49.364Z,20.17
2023-06-30T19:06:53.934Z,20.17
2023-06-30T19:09:56.628Z,20.17
2023-06-30T19:12:59.705Z,20.17
2023-06-30T19:16:02.662Z,20.09
2023-06-30T19:19:05.431Z,20.03
2023-06-30T19:22:09.714Z,20.06
2023-06-30T19:25:12.465Z,20.06
2023-06-30T19:28:15.414Z,20.15
2023-06-30T19:31:18.413Z,20.26
2023-06-30T19:34:21.254Z,20.17
2023-06-30T19:37:25.491Z,20.17
2023-06-30T19:40:28.314Z,20.28
2023-06-30T19:43:31.213Z,20.16
2023-06-30T19:46:35.425Z,19.95
2023-06-30T19:49:38.725Z,19.84
2023-06-30T19:52:42.927Z,19.77
2023-06-30T19:55:46.038Z,19.84
2023-06-30T19:58:49.516Z,19.88
2023-06-30T20:01:55.832Z,19.92
2023-06-30T20:04:58.629Z,19.83
2023-06-30T20:08:03.086Z,19.81
2023-06-30T20:11:05.844Z,19.77
2023-06-30T20:14:08.857Z,19.76
2023-06-30T20:17:11.767Z,19.79
2023-06-30T20:20:15.097Z,19.79
2023-06-30T20:23:19.632Z,19.54
2023-06-30T20:26:22.407Z,19.53
2023-06-30T20:29:25.323Z,19.56
2023-06-30T20:32:28.258Z,19.43
2023-06-30T20:35:31.043Z,19.42
2023-06-30T20:38:35.145Z,19.40
2023-06-30T20:41:37.888Z,19.29
2023-06-30T20:44:40.796Z,19.29
2023-06-30T20:47:43.672Z,19.28
2023-06-30T20:50:46.755Z,19.29
2023-06-30T20:53:51.169Z,19.32
2023-06-30T20:56:55.476Z,19.31
2023-06-30T20:59:58.325Z,19.31
2023-06-30T21:03:01.306Z,19.32
2023-06-30T21:06:04.084Z,19.28
2023-06-30T21:09:08.320Z,19.30
2023-06-30T21:12:11.234Z,19.37
2023-06-30T21:15:14.118Z,19.31
2023-06-30T21:18:17.194Z,19.25
2023-06-30T21:21:20.131Z,19.13
2023-06-30T21:24:24.417Z,19.08
2023-06-30T21:27:27.917Z,19.11
2023-06-30T21:30:30.905Z,19.12
2023-06-30T21:33:33.718Z,19.03
2023-06-30T21:36:39.547Z,19.01
2023-06-30T21:39:44.298Z,19.02
2023-06-30T21:42:47.026Z,19.02
2023-06-30T21:45:49.891Z,19.04
2023-06-30T21:48:53.986Z,19.02
2023-06-30T21:52:16.115Z,19.06
2023-06-30T21:55:20.628Z,19.06
2023-06-30T21:58:27.707Z,19.09
2023-06-30T22:01:39.929Z,19.11
2023-06-30T22:04:43.805Z,19.06
2023-06-30T22:07:46.759Z,19.02
2023-06-30T22:10:51.194Z,19.01
2023-06-30T22:13:54.118Z,19.02
2023-06-30T22:16:57.904Z,19.00
2023-06-30T22:20:00.633Z,18.98
2023-06-30T22:23:03.531Z,18.97
2023-06-30T22:26:07.896Z,18.94
2023-06-30T22:29:10.659Z,18.89
2023-06-30T22:32:14.704Z,18.90
2023-06-30T22:35:17.556Z,18.81
2023-06-30T22:38:20.477Z,18.89
2023-06-30T22:41:24.744Z,18.79
2023-06-30T22:44:27.493Z,18.93
2023-06-30T22:47:30.372Z,18.94
2023-06-30T22:50:33.205Z,18.74
2023-06-30T22:53:36.074Z,18.86
2023-06-30T22:56:40.455Z,18.91
2023-06-30T22:59:43.165Z,18.96
2023-06-30T23:02:46.114Z,18.93
2023-06-30T23:05:48.919Z,18.62
2023-06-30T23:08:51.794Z,18.55
2023-06-30T23:11:56.014Z,18.77
2023-06-30T23:14:58.756Z,18.82
2023-06-30T23:18:01.669Z,18.82
2023-06-30T23:21:10.305Z,18.83
2023-06-30T23:24:13.268Z,18.80
2023-06-30T23:27:18.105Z,18.76
2023-06-30T23:30:26.397Z,18.50
2023-06-30T23:33:29.300Z,18.29
2023-06-30T23:36:32.349Z,18.30
2023-06-30T23:39:36.962Z,18.35
2023-06-30T23:42:41.250Z,18.39
2023-06-30T23:45:43.948Z,18.24
2023-06-30T23:48:47.229Z,18.13
2023-06-30T23:51:51.193Z,18.00
2023-06-30T23:54:54.139Z,18.00
2023-06-30T23:57:58.225Z,18.10
